Maybole, United Kingdom
Current Conditions -  °F | °C
As of 11:50 PM on Saturday 25 Oct 2014 (Local Time) from EGPK Reporting Station
Broken Clouds Broken Clouds  
Wind Chill: 54°   Ceiling: 3800
Heat Index: 54°   Visibility: 6mi
Dew Point: 45°   Wind: 23mph
Humidity: 72%   Direction: 210°SSW
Pressure: 29.74"   Gusts: NA
Location:  55.36°N, 4.68°W
Report Text: EGPK 252250Z 21020KT 9999 SCT022 BKN038 12/07 Q1007
Loading
Personal Weather Stations






























Interactive Weather Map
Tropical Storm Tracking
New forecast layout! Learn more

10-Day Weather Forecast

Advertisements
Track Severe Weather on mobile